Time;durP1;ratioP1;P1;durP2;ratioP2;P2;SDS_P1;SDS_P2;PMS_P1;PMS_P2;Temp;Humidity;BMP_temperature;BMP_pressure;BME280_temperature;BME280_humidity;BME280_pressure;Samples;Min_cycle;Max_cycle;Signal;HPM_P1;HPM_P2
2023/05/22 00:00:39;;;;;;;11.27;10.27;;;;;;;;;;5033759;28;20202;-72
2023/05/22 00:03:07;;;;;;;12.00;10.80;;;;;;;;;;5033664;28;20182;-72
2023/05/22 00:05:37;;;;;;;11.50;10.40;;;;;;;;;;5046322;28;20227;-72
2023/05/22 00:08:03;;;;;;;12.20;10.73;;;;;;;;;;5018523;28;20203;-72
2023/05/22 00:10:29;;;;;;;10.57;9.57;;;;;;;;;;5025494;28;20182;-72
2023/05/22 00:12:56;;;;;;;11.13;9.97;;;;;;;;;;5031462;28;20224;-72
2023/05/22 00:15:22;;;;;;;10.87;9.83;;;;;;;;;;5032181;28;20726;-72
2023/05/22 00:17:48;;;;;;;11.80;9.50;;;;;;;;;;5039889;28;20288;-72
2023/05/22 00:20:15;;;;;;;10.83;9.77;;;;;;;;;;5019302;28;20301;-72
2023/05/22 00:22:41;;;;;;;11.93;10.77;;;;;;;;;;5030989;28;20220;-72
2023/05/22 00:25:08;;;;;;;10.97;9.97;;;;;;;;;;5051582;28;20197;-72
2023/05/22 00:27:34;;;;;;;11.50;10.30;;;;;;;;;;5022118;28;20229;-72
2023/05/22 00:30:00;;;;;;;11.20;10.13;;;;;;;;;;5036006;28;20622;-72
2023/05/22 00:32:27;;;;;;;12.33;11.00;;;;;;;;;;5034954;28;20170;-72
2023/05/22 00:34:53;;;;;;;11.97;10.87;;;;;;;;;;5021851;28;20175;-72
2023/05/22 00:37:19;;;;;;;11.37;10.37;;;;;;;;;;5009989;28;20605;-72
2023/05/22 00:39:45;;;;;;;11.90;10.80;;;;;;;;;;5044985;28;20182;-72
2023/05/22 00:42:12;;;;;;;11.40;10.27;;;;;;;;;;5018461;28;20280;-72
2023/05/22 00:44:38;;;;;;;11.60;10.50;;;;;;;;;;5022887;28;20182;-72
2023/05/22 00:47:05;;;;;;;12.90;11.60;;;;;;;;;;5037849;28;20198;-72
2023/05/22 00:49:31;;;;;;;12.47;11.27;;;;;;;;;;5027527;28;20181;-72
2023/05/22 00:51:57;;;;;;;12.00;10.80;;;;;;;;;;5024735;28;20197;-72
2023/05/22 00:54:23;;;;;;;12.70;11.50;;;;;;;;;;5037085;28;20186;-72
2023/05/22 00:56:49;;;;;;;12.13;11.00;;;;;;;;;;5000385;28;20229;-75
2023/05/22 00:59:16;;;;;;;12.20;11.10;;;;;;;;;;5035665;28;20201;-75
2023/05/22 01:01:43;;;;;;;13.00;11.80;;;;;;;;;;5035692;28;20216;-74
2023/05/22 01:04:11;;;;;;;11.63;10.53;;;;;;;;;;5024331;28;20638;-75
2023/05/22 01:06:37;;;;;;;12.20;11.10;;;;;;;;;;5042199;28;20712;-75
2023/05/22 01:09:03;;;;;;;12.63;11.43;;;;;;;;;;5041944;28;20646;-75
2023/05/22 01:11:48;;;;;;;12.87;11.67;;;;;;;;;;5040312;28;20177;-74
2023/05/22 01:14:14;;;;;;;12.00;10.80;;;;;;;;;;5039989;28;20185;-75
2023/05/22 01:16:47;;;;;;;12.20;11.03;;;;;;;;;;5037348;28;20613;-74
2023/05/22 01:19:32;;;;;;;13.07;11.80;;;;;;;;;;5001855;28;20186;-74
2023/05/22 01:22:12;;;;;;;11.93;10.83;;;;;;;;;;5036426;28;20208;-74
2023/05/22 01:24:51;;;;;;;11.07;10.07;;;;;;;;;;5018600;28;20182;-74
2023/05/22 01:27:34;;;;;;;11.97;10.87;;;;;;;;;;5013843;28;20259;-74
2023/05/22 01:30:11;;;;;;;13.63;11.00;;;;;;;;;;5034637;28;20173;-74
2023/05/22 01:32:38;;;;;;;11.87;10.67;;;;;;;;;;5028510;28;20177;-75
2023/05/22 01:35:08;;;;;;;12.60;11.30;;;;;;;;;;5032146;28;20650;-74
2023/05/22 01:37:35;;;;;;;11.97;10.73;;;;;;;;;;5050642;28;20216;-74
2023/05/22 01:40:02;;;;;;;12.50;11.40;;;;;;;;;;4999133;28;20185;-74
2023/05/22 01:42:28;;;;;;;11.77;10.60;;;;;;;;;;5024548;28;20521;-74
2023/05/22 01:44:54;;;;;;;12.37;11.27;;;;;;;;;;5024564;28;20265;-75
2023/05/22 01:47:22;;;;;;;12.50;11.30;;;;;;;;;;5018088;28;20225;-74
2023/05/22 01:49:48;;;;;;;14.03;12.57;;;;;;;;;;5021896;28;20184;-75
2023/05/22 01:52:17;;;;;;;14.73;13.33;;;;;;;;;;5025192;28;20269;-74
2023/05/22 01:54:49;;;;;;;13.53;12.23;;;;;;;;;;5021371;28;20500;-74
2023/05/22 01:57:20;;;;;;;13.10;11.90;;;;;;;;;;5022676;28;20380;-75
2023/05/22 02:00:06;;;;;;;11.77;10.63;;;;;;;;;;5030805;28;20183;-75
2023/05/22 02:02:43;;;;;;;13.43;12.13;;;;;;;;;;5041811;28;20559;-75
2023/05/22 02:05:10;;;;;;;12.77;11.57;;;;;;;;;;5023567;28;20182;-74
2023/05/22 02:07:38;;;;;;;12.77;11.47;;;;;;;;;;5044057;28;20693;-74
2023/05/22 02:10:05;;;;;;;13.63;12.23;;;;;;;;;;5018014;28;20227;-74
2023/05/22 02:12:31;;;;;;;12.37;11.17;;;;;;;;;;5023421;28;20175;-74
2023/05/22 02:14:57;;;;;;;12.77;11.57;;;;;;;;;;5024461;28;20257;-74
2023/05/22 02:17:24;;;;;;;12.70;11.50;;;;;;;;;;5027071;28;20201;-74
2023/05/22 02:19:51;;;;;;;12.63;11.50;;;;;;;;;;5024052;28;20269;-74
2023/05/22 02:22:17;;;;;;;11.73;10.63;;;;;;;;;;5040630;28;20242;-74
2023/05/22 02:24:45;;;;;;;12.53;11.27;;;;;;;;;;5022554;28;20262;-74
2023/05/22 02:27:11;;;;;;;12.40;11.30;;;;;;;;;;5017179;28;20785;-74
2023/05/22 02:29:37;;;;;;;12.00;10.87;;;;;;;;;;5015619;28;20186;-74
2023/05/22 02:32:04;;;;;;;13.93;11.87;;;;;;;;;;5023329;28;20179;-74
2023/05/22 02:34:30;;;;;;;13.40;12.10;;;;;;;;;;5020210;28;20182;-74
2023/05/22 02:36:58;;;;;;;13.17;11.83;;;;;;;;;;5021328;28;20296;-75
2023/05/22 02:39:27;;;;;;;12.40;11.30;;;;;;;;;;5028383;28;20178;-75
2023/05/22 02:41:54;;;;;;;11.97;10.87;;;;;;;;;;5026798;28;20207;-75
2023/05/22 02:44:20;;;;;;;12.17;11.07;;;;;;;;;;5031562;28;20286;-74
2023/05/22 02:46:46;;;;;;;12.57;11.37;;;;;;;;;;5026297;28;20229;-74
2023/05/22 02:49:12;;;;;;;12.73;11.53;;;;;;;;;;5020152;28;20186;-74
2023/05/22 02:51:39;;;;;;;13.57;12.20;;;;;;;;;;5023279;28;20273;-75
2023/05/22 02:54:05;;;;;;;12.83;11.53;;;;;;;;;;5019361;28;20221;-74
2023/05/22 02:56:32;;;;;;;13.73;12.40;;;;;;;;;;5045307;28;20235;-75
2023/05/22 02:58:58;;;;;;;12.77;11.43;;;;;;;;;;5032654;28;20174;-75
2023/05/22 03:01:25;;;;;;;12.73;11.47;;;;;;;;;;5037529;28;20202;-74
2023/05/22 03:03:53;;;;;;;12.60;11.40;;;;;;;;;;5025793;28;20189;-75
2023/05/22 03:06:20;;;;;;;12.23;11.00;;;;;;;;;;5007609;28;20190;-74
2023/05/22 03:08:47;;;;;;;12.73;11.47;;;;;;;;;;5017890;28;20237;-75
2023/05/22 03:11:13;;;;;;;12.70;11.47;;;;;;;;;;5024156;28;20668;-74
2023/05/22 03:13:39;;;;;;;12.20;11.00;;;;;;;;;;5029294;28;20201;-74
2023/05/22 03:16:07;;;;;;;12.50;11.30;;;;;;;;;;5024733;28;20190;-74
2023/05/22 03:18:33;;;;;;;13.13;11.83;;;;;;;;;;5021285;28;20246;-74
2023/05/22 03:20:59;;;;;;;13.40;12.10;;;;;;;;;;5021539;28;20214;-74
2023/05/22 03:23:25;;;;;;;13.03;11.70;;;;;;;;;;5017286;28;20638;-75
2023/05/22 03:25:52;;;;;;;13.13;11.83;;;;;;;;;;5017095;28;20197;-74
2023/05/22 03:28:19;;;;;;;13.53;12.20;;;;;;;;;;5019246;28;20222;-74
2023/05/22 03:30:46;;;;;;;12.97;11.77;;;;;;;;;;5018813;28;20185;-74
2023/05/22 03:33:20;;;;;;;13.37;11.97;;;;;;;;;;5034509;28;20230;-75
2023/05/22 03:35:46;;;;;;;12.10;11.00;;;;;;;;;;5045068;28;20680;-74
2023/05/22 03:38:12;;;;;;;12.50;11.33;;;;;;;;;;5042666;28;20205;-74
2023/05/22 03:40:39;;;;;;;13.00;11.60;;;;;;;;;;5020836;28;20210;-74
2023/05/22 03:43:05;;;;;;;13.13;11.77;;;;;;;;;;5014675;28;20643;-74
2023/05/22 03:45:31;;;;;;;12.60;11.30;;;;;;;;;;5030600;28;20676;-74
2023/05/22 03:47:58;;;;;;;14.23;12.83;;;;;;;;;;5021289;28;20212;-74
2023/05/22 03:50:24;;;;;;;12.70;11.40;;;;;;;;;;5024821;28;20174;-75
2023/05/22 03:52:50;;;;;;;14.33;12.00;;;;;;;;;;5038359;28;20212;-75
2023/05/22 03:55:16;;;;;;;12.90;11.63;;;;;;;;;;5030550;28;20236;-74
2023/05/22 03:57:42;;;;;;;12.20;11.10;;;;;;;;;;5043508;28;20207;-75
2023/05/22 04:00:09;;;;;;;13.07;11.87;;;;;;;;;;5043809;28;20181;-74
2023/05/22 04:02:43;;;;;;;12.00;10.90;;;;;;;;;;5051920;28;20239;-74
2023/05/22 04:05:10;;;;;;;13.77;12.37;;;;;;;;;;5032414;28;20808;-74
2023/05/22 04:07:36;;;;;;;14.10;12.67;;;;;;;;;;5019455;28;20689;-74
2023/05/22 04:10:05;;;;;;;13.33;12.03;;;;;;;;;;5042345;28;20179;-74
2023/05/22 04:12:31;;;;;;;14.53;13.03;;;;;;;;;;5024467;28;20186;-74
2023/05/22 04:14:57;;;;;;;14.67;13.10;;;;;;;;;;5036836;28;20232;-74
2023/05/22 04:17:23;;;;;;;13.80;12.43;;;;;;;;;;5043017;28;20202;-74
2023/05/22 04:19:49;;;;;;;13.90;12.53;;;;;;;;;;5025303;28;20227;-74
2023/05/22 04:22:17;;;;;;;15.00;13.47;;;;;;;;;;5021517;28;20738;-74
2023/05/22 04:24:47;;;;;;;14.37;12.97;;;;;;;;;;5040484;28;20677;-74
2023/05/22 04:27:14;;;;;;;14.97;13.43;;;;;;;;;;5037522;28;20207;-74
2023/05/22 04:29:40;;;;;;;14.90;13.50;;;;;;;;;;5042614;28;20239;-74
2023/05/22 04:32:09;;;;;;;15.47;14.00;;;;;;;;;;5001976;28;20642;-75
2023/05/22 04:34:40;;;;;;;15.20;13.70;;;;;;;;;;5023985;28;20174;-74
2023/05/22 04:37:06;;;;;;;15.13;13.63;;;;;;;;;;5033735;28;20201;-74
2023/05/22 04:39:33;;;;;;;16.53;14.67;;;;;;;;;;5017603;28;20197;-74
2023/05/22 04:42:04;;;;;;;17.20;15.23;;;;;;;;;;5017778;28;20585;-75
2023/05/22 04:44:33;;;;;;;16.20;14.57;;;;;;;;;;5023804;28;20190;-75
2023/05/22 04:47:02;;;;;;;15.97;14.37;;;;;;;;;;5035902;28;20199;-75
2023/05/22 04:49:29;;;;;;;14.90;13.47;;;;;;;;;;5038420;28;20170;-75
2023/05/22 04:51:56;;;;;;;14.83;13.37;;;;;;;;;;5036725;28;20584;-74
2023/05/22 04:54:23;;;;;;;15.13;13.70;;;;;;;;;;5025962;28;20316;-74
2023/05/22 04:56:50;;;;;;;15.43;13.83;;;;;;;;;;5032606;28;20206;-74
2023/05/22 04:59:18;;;;;;;13.70;12.40;;;;;;;;;;5024383;28;20178;-74
2023/05/22 05:01:45;;;;;;;15.13;13.57;;;;;;;;;;5022416;28;20210;-75
2023/05/22 05:04:11;;;;;;;15.50;14.00;;;;;;;;;;5018026;28;20666;-74
2023/05/22 05:06:37;;;;;;;16.40;14.70;;;;;;;;;;5014151;28;20280;-74
2023/05/22 05:09:04;;;;;;;15.07;13.67;;;;;;;;;;5013697;28;20209;-74
2023/05/22 05:11:30;;;;;;;14.07;12.77;;;;;;;;;;5017051;28;20222;-73
2023/05/22 05:13:56;;;;;;;14.87;13.43;;;;;;;;;;5013853;28;20201;-77
2023/05/22 05:16:23;;;;;;;15.23;13.83;;;;;;;;;;5014586;28;20189;-80
2023/05/22 05:18:54;;;;;;;15.40;13.80;;;;;;;;;;5031955;28;20236;-79
2023/05/22 05:21:20;;;;;;;15.33;13.73;;;;;;;;;;5014590;28;20301;-78
2023/05/22 05:23:47;;;;;;;16.47;14.57;;;;;;;;;;5014055;28;20175;-79
2023/05/22 05:26:13;;;;;;;16.77;14.97;;;;;;;;;;5014340;28;20189;-81
2023/05/22 05:28:40;;;;;;;15.37;13.87;;;;;;;;;;5014249;28;20186;-80
2023/05/22 05:31:07;;;;;;;16.93;14.93;;;;;;;;;;5013887;28;20241;-78
2023/05/22 05:33:57;;;;;;;15.17;13.60;;;;;;;;;;5013709;28;20456;-78
2023/05/22 05:36:34;;;;;;;16.07;14.03;;;;;;;;;;5016792;28;20669;-78
2023/05/22 05:39:01;;;;;;;14.87;13.43;;;;;;;;;;5047325;28;20650;-78
2023/05/22 05:41:28;;;;;;;16.67;14.73;;;;;;;;;;5036012;28;20209;-78
2023/05/22 05:44:01;;;;;;;17.57;15.77;;;;;;;;;;5024189;28;20591;-78
2023/05/22 05:46:30;;;;;;;17.13;15.43;;;;;;;;;;5002860;28;20273;-80
2023/05/22 05:48:57;;;;;;;17.40;15.57;;;;;;;;;;5026251;28;20690;-79
2023/05/22 05:51:23;;;;;;;20.20;16.30;;;;;;;;;;5017674;28;20205;-78
2023/05/22 05:53:49;;;;;;;18.43;16.57;;;;;;;;;;5014220;28;20256;-79
2023/05/22 05:56:16;;;;;;;18.63;16.33;;;;;;;;;;4998752;28;20373;-80
2023/05/22 05:58:45;;;;;;;17.47;15.60;;;;;;;;;;4997677;28;20656;-79
2023/05/22 06:01:34;;;;;;;16.93;15.33;;;;;;;;;;5012806;28;20686;-80
2023/05/22 06:04:02;;;;;;;17.70;15.90;;;;;;;;;;5013256;28;20179;-80
2023/05/22 06:06:38;;;;;;;17.27;15.53;;;;;;;;;;5019137;28;20827;-78
2023/05/22 06:09:09;;;;;;;17.80;15.63;;;;;;;;;;5025896;28;20204;-78
2023/05/22 06:11:55;;;;;;;17.73;16.03;;;;;;;;;;5031065;28;20205;-79
2023/05/22 06:14:23;;;;;;;19.00;15.67;;;;;;;;;;5011348;28;20197;-79
2023/05/22 06:16:49;;;;;;;17.70;14.80;;;;;;;;;;5011730;28;20217;-78
2023/05/22 06:19:15;;;;;;;16.87;14.43;;;;;;;;;;5025061;28;20214;-79
2023/05/22 06:21:42;;;;;;;19.03;17.03;;;;;;;;;;5013837;28;20245;-78
2023/05/22 06:24:08;;;;;;;17.47;15.77;;;;;;;;;;5011007;28;20668;-78
2023/05/22 06:26:34;;;;;;;16.90;15.13;;;;;;;;;;5016278;28;20240;-78
2023/05/22 06:29:01;;;;;;;20.47;15.13;;;;;;;;;;5017423;28;20673;-78
2023/05/22 06:31:34;;;;;;;16.57;15.07;;;;;;;;;;5011408;28;20182;-78
2023/05/22 06:34:01;;;;;;;15.60;14.00;;;;;;;;;;5016860;28;20577;-78
2023/05/22 06:36:27;;;;;;;17.87;15.87;;;;;;;;;;5013807;28;20194;-78
2023/05/22 06:38:54;;;;;;;15.60;14.10;;;;;;;;;;5005018;28;20607;-78
2023/05/22 06:41:40;;;;;;;21.47;17.03;;;;;;;;;;5024414;28;20209;-79
2023/05/22 06:44:11;;;;;;;17.93;15.73;;;;;;;;;;4991979;28;20953;-78
2023/05/22 06:46:38;;;;;;;19.47;16.83;;;;;;;;;;5015423;28;20211;-81
2023/05/22 06:49:05;;;;;;;19.00;16.47;;;;;;;;;;5016311;28;20178;-78
2023/05/22 06:51:36;;;;;;;16.83;15.23;;;;;;;;;;5032384;28;20662;-78
2023/05/22 06:54:07;;;;;;;18.67;16.57;;;;;;;;;;5016447;28;20171;-78
2023/05/22 06:56:34;;;;;;;18.23;16.30;;;;;;;;;;5009490;28;20207;-76
2023/05/22 06:59:06;;;;;;;17.50;15.80;;;;;;;;;;5018736;28;20201;-80
2023/05/22 07:01:48;;;;;;;17.40;15.70;;;;;;;;;;5026416;28;20704;-79
2023/05/22 07:04:19;;;;;;;18.43;16.50;;;;;;;;;;5015238;28;20645;-76
2023/05/22 07:07:11;;;;;;;17.77;16.07;;;;;;;;;;5009601;28;20219;-76
2023/05/22 07:09:39;;;;;;;17.00;15.40;;;;;;;;;;5012533;28;20186;-77
2023/05/22 07:12:06;;;;;;;17.97;16.17;;;;;;;;;;5013612;28;20698;-76
2023/05/22 07:14:33;;;;;;;16.57;14.80;;;;;;;;;;5011854;28;20670;-77
2023/05/22 07:16:59;;;;;;;17.50;15.90;;;;;;;;;;5015463;28;20202;-76
2023/05/22 07:19:30;;;;;;;15.73;14.17;;;;;;;;;;5015764;28;20554;-76
2023/05/22 07:21:59;;;;;;;17.57;15.40;;;;;;;;;;5014576;28;20206;-78
2023/05/22 07:24:26;;;;;;;16.60;14.93;;;;;;;;;;5015246;28;20727;-76
2023/05/22 07:26:52;;;;;;;16.83;15.13;;;;;;;;;;5013526;28;20697;-77
2023/05/22 07:29:19;;;;;;;16.30;14.60;;;;;;;;;;5013633;28;20314;-77
2023/05/22 07:31:49;;;;;;;16.60;14.67;;;;;;;;;;5018153;28;20676;-75
2023/05/22 07:34:16;;;;;;;16.33;14.63;;;;;;;;;;5016592;28;20229;-76
2023/05/22 07:36:43;;;;;;;16.43;14.47;;;;;;;;;;5015939;28;20210;-75
2023/05/22 07:39:10;;;;;;;15.60;14.10;;;;;;;;;;5015999;28;20175;-78
2023/05/22 07:41:39;;;;;;;15.57;13.97;;;;;;;;;;5012880;28;20210;-75
2023/05/22 07:44:08;;;;;;;15.27;13.77;;;;;;;;;;5028105;28;20179;-75
2023/05/22 07:46:36;;;;;;;14.70;13.30;;;;;;;;;;5016906;28;20277;-76
2023/05/22 07:49:15;;;;;;;15.77;12.83;;;;;;;;;;5016333;28;20257;-78
2023/05/22 07:51:42;;;;;;;14.03;12.63;;;;;;;;;;4993172;28;20194;-82
2023/05/22 07:54:09;;;;;;;13.00;11.80;;;;;;;;;;5008779;28;20707;-76
2023/05/22 07:56:40;;;;;;;15.50;13.93;;;;;;;;;;5031055;28;20211;-75
2023/05/22 07:59:07;;;;;;;15.10;13.40;;;;;;;;;;5015777;28;20194;-76
2023/05/22 08:01:36;;;;;;;13.63;12.23;;;;;;;;;;5031235;28;20213;-75
2023/05/22 08:04:02;;;;;;;14.47;13.07;;;;;;;;;;5031522;28;20191;-76
2023/05/22 08:06:29;;;;;;;15.23;13.83;;;;;;;;;;5014224;28;20270;-75
2023/05/22 08:08:56;;;;;;;15.33;13.63;;;;;;;;;;5033043;28;20268;-76
2023/05/22 08:11:25;;;;;;;16.33;14.60;;;;;;;;;;5033341;28;20266;-75
2023/05/22 08:13:51;;;;;;;16.47;14.87;;;;;;;;;;5032236;28;20182;-76
2023/05/22 08:16:17;;;;;;;15.90;14.23;;;;;;;;;;5030994;28;21230;-75
2023/05/22 08:18:43;;;;;;;15.37;13.80;;;;;;;;;;5027456;28;20194;-75
2023/05/22 08:21:09;;;;;;;14.87;13.27;;;;;;;;;;5029715;28;20268;-79
2023/05/22 08:23:37;;;;;;;13.10;11.83;;;;;;;;;;5031391;28;20210;-78
2023/05/22 08:26:03;;;;;;;13.50;12.20;;;;;;;;;;5032568;28;20286;-76
2023/05/22 08:28:29;;;;;;;13.17;11.87;;;;;;;;;;5030055;28;20294;-79
2023/05/22 08:30:56;;;;;;;13.33;12.00;;;;;;;;;;5023870;28;20193;-78
2023/05/22 08:33:22;;;;;;;14.20;12.90;;;;;;;;;;5034370;28;20526;-76
2023/05/22 08:35:48;;;;;;;14.53;13.03;;;;;;;;;;5032700;28;20199;-76
2023/05/22 08:38:15;;;;;;;14.40;12.90;;;;;;;;;;5032623;28;20195;-76
2023/05/22 08:40:46;;;;;;;14.17;12.87;;;;;;;;;;5031904;28;20190;-75
2023/05/22 08:43:12;;;;;;;13.97;12.47;;;;;;;;;;5013122;28;20599;-75
2023/05/22 08:45:41;;;;;;;16.33;12.90;;;;;;;;;;5028899;28;20188;-76
2023/05/22 08:48:11;;;;;;;13.57;12.27;;;;;;;;;;5032005;28;20255;-77
2023/05/22 08:50:40;;;;;;;12.17;11.03;;;;;;;;;;5013766;28;20187;-79
2023/05/22 08:53:08;;;;;;;13.53;12.23;;;;;;;;;;5028872;28;20210;-76
2023/05/22 08:55:34;;;;;;;13.50;11.77;;;;;;;;;;5027469;28;20170;-79
2023/05/22 08:58:00;;;;;;;15.23;12.33;;;;;;;;;;5032257;28;20232;-76
2023/05/22 09:00:26;;;;;;;15.03;12.67;;;;;;;;;;5014399;28;20216;-77
2023/05/22 09:02:54;;;;;;;13.93;12.50;;;;;;;;;;5013864;28;20175;-78
2023/05/22 09:05:25;;;;;;;13.50;12.07;;;;;;;;;;5012569;28;20199;-77
2023/05/22 09:07:52;;;;;;;15.40;12.90;;;;;;;;;;5032024;28;20211;-77
2023/05/22 09:10:19;;;;;;;14.93;12.97;;;;;;;;;;5028430;28;21149;-78
2023/05/22 09:12:59;;;;;;;13.60;12.20;;;;;;;;;;5016633;28;20705;-78
2023/05/22 09:15:28;;;;;;;13.63;12.23;;;;;;;;;;5031109;28;20658;-78
2023/05/22 09:17:55;;;;;;;13.17;11.87;;;;;;;;;;5032108;28;20297;-77
2023/05/22 09:20:21;;;;;;;13.23;11.90;;;;;;;;;;5031735;28;20168;-77
2023/05/22 09:22:47;;;;;;;13.23;11.80;;;;;;;;;;5031183;28;20221;-77
2023/05/22 09:25:17;;;;;;;14.37;12.67;;;;;;;;;;5031412;28;20595;-77
2023/05/22 09:27:50;;;;;;;14.33;12.30;;;;;;;;;;5031201;28;20687;-78
2023/05/22 09:30:16;;;;;;;15.57;13.97;;;;;;;;;;5028591;28;20572;-79
2023/05/22 09:32:43;;;;;;;14.90;13.50;;;;;;;;;;5031259;28;20607;-78
2023/05/22 09:35:09;;;;;;;13.47;12.10;;;;;;;;;;5031637;28;20167;-78
2023/05/22 09:37:36;;;;;;;15.23;12.43;;;;;;;;;;5031641;28;20287;-78
2023/05/22 09:40:05;;;;;;;14.30;12.90;;;;;;;;;;5014446;28;20185;-80
2023/05/22 09:42:35;;;;;;;17.17;12.97;;;;;;;;;;5010931;28;20217;-78
2023/05/22 09:45:05;;;;;;;15.20;13.60;;;;;;;;;;5016769;28;20195;-78
2023/05/22 09:47:32;;;;;;;13.40;12.10;;;;;;;;;;5039733;28;20237;-78
2023/05/22 09:50:00;;;;;;;13.93;12.50;;;;;;;;;;5011297;28;20217;-78
2023/05/22 09:52:32;;;;;;;13.57;12.23;;;;;;;;;;5026027;28;20260;-79
2023/05/22 09:54:59;;;;;;;15.40;13.87;;;;;;;;;;5011398;28;20182;-79
2023/05/22 09:57:26;;;;;;;14.37;13.07;;;;;;;;;;5017929;28;20298;-79
2023/05/22 09:59:56;;;;;;;13.93;12.73;;;;;;;;;;5035349;28;20677;-78
2023/05/22 10:02:23;;;;;;;14.77;13.27;;;;;;;;;;5035619;28;20345;-75
2023/05/22 10:04:49;;;;;;;15.13;13.70;;;;;;;;;;5017930;28;20186;-79
2023/05/22 10:07:16;;;;;;;14.17;12.77;;;;;;;;;;5017846;28;20367;-78
2023/05/22 10:09:43;;;;;;;14.17;12.67;;;;;;;;;;5036169;28;20576;-78
2023/05/22 10:12:15;;;;;;;14.70;13.30;;;;;;;;;;5015203;28;20194;-78
2023/05/22 10:14:41;;;;;;;13.57;12.27;;;;;;;;;;5033306;28;20202;-81
2023/05/22 10:17:10;;;;;;;13.80;12.50;;;;;;;;;;5041444;28;20194;-79
2023/05/22 10:19:36;;;;;;;14.37;13.07;;;;;;;;;;5040702;28;20179;-82
2023/05/22 10:22:03;;;;;;;12.80;11.60;;;;;;;;;;5046615;28;20206;-78
2023/05/22 10:24:29;;;;;;;14.60;13.10;;;;;;;;;;5018862;28;20183;-78
2023/05/22 10:26:56;;;;;;;13.37;12.07;;;;;;;;;;5027185;28;20211;-79
2023/05/22 10:29:30;;;;;;;15.10;13.57;;;;;;;;;;5029596;28;20179;-78
2023/05/22 10:32:03;;;;;;;19.60;17.70;;;;;;;;;;5009962;28;20258;-79
2023/05/22 10:34:50;;;;;;;19.37;17.47;;;;;;;;;;5032025;28;20187;-79
2023/05/22 10:37:31;;;;;;;20.13;18.13;;;;;;;;;;5016143;28;20625;-77
2023/05/22 10:40:03;;;;;;;17.97;16.33;;;;;;;;;;5031965;28;20646;-78
2023/05/22 10:42:30;;;;;;;20.50;18.50;;;;;;;;;;4997486;28;20594;-78
2023/05/22 10:44:57;;;;;;;20.60;18.70;;;;;;;;;;5034283;28;20766;-77
2023/05/22 10:47:23;;;;;;;20.43;17.97;;;;;;;;;;5030290;28;20205;-72
2023/05/22 10:49:50;;;;;;;24.13;18.53;;;;;;;;;;5030772;28;20197;-72
2023/05/22 10:52:20;;;;;;;20.70;18.70;;;;;;;;;;5026146;28;20186;-74
2023/05/22 10:54:52;;;;;;;21.77;19.40;;;;;;;;;;5023212;28;20282;-75
2023/05/22 10:57:19;;;;;;;22.60;19.30;;;;;;;;;;5034053;28;20221;-74
2023/05/22 10:59:49;;;;;;;22.27;19.87;;;;;;;;;;5030433;28;20187;-75
2023/05/22 11:02:29;;;;;;;20.27;18.00;;;;;;;;;;5028175;28;20209;-72
2023/05/22 11:05:15;;;;;;;21.33;19.17;;;;;;;;;;5025714;28;20187;-72
2023/05/22 11:07:42;;;;;;;21.50;19.20;;;;;;;;;;5031524;28;20264;-72
2023/05/22 11:10:08;;;;;;;21.30;19.23;;;;;;;;;;5007546;28;20214;-72
2023/05/22 11:12:34;;;;;;;20.90;18.70;;;;;;;;;;5026411;28;20221;-72
2023/05/22 11:15:06;;;;;;;22.77;20.40;;;;;;;;;;5014895;28;20182;-73
2023/05/22 11:17:35;;;;;;;21.30;19.17;;;;;;;;;;5032101;28;20202;-72
2023/05/22 11:20:05;;;;;;;21.67;19.43;;;;;;;;;;5028836;28;20265;-73
2023/05/22 11:22:32;;;;;;;22.97;18.70;;;;;;;;;;5026295;28;20583;-74
2023/05/22 11:24:59;;;;;;;20.53;18.43;;;;;;;;;;5029116;28;20673;-73
2023/05/22 11:27:26;;;;;;;21.47;17.83;;;;;;;;;;5013795;28;20215;-72
2023/05/22 11:29:53;;;;;;;22.23;19.87;;;;;;;;;;5010262;28;20192;-73
2023/05/22 11:32:21;;;;;;;22.80;20.37;;;;;;;;;;5026965;28;20650;-73
2023/05/22 11:34:49;;;;;;;21.13;18.97;;;;;;;;;;5016219;28;20262;-73
2023/05/22 11:37:17;;;;;;;23.00;20.07;;;;;;;;;;5027408;28;20285;-73
2023/05/22 11:39:57;;;;;;;22.07;19.70;;;;;;;;;;5024715;28;20669;-73
2023/05/22 11:42:23;;;;;;;20.43;18.30;;;;;;;;;;5025634;28;20207;-74
2023/05/22 11:44:49;;;;;;;20.70;18.57;;;;;;;;;;5026476;28;20195;-74
2023/05/22 11:47:15;;;;;;;21.53;19.33;;;;;;;;;;5029762;28;20196;-74
2023/05/22 11:49:42;;;;;;;20.47;18.33;;;;;;;;;;5031395;28;20189;-73
2023/05/22 11:52:08;;;;;;;19.63;17.67;;;;;;;;;;5030792;28;20187;-74
2023/05/22 11:54:35;;;;;;;19.90;18.00;;;;;;;;;;4999695;28;20239;-74
2023/05/22 11:57:05;;;;;;;20.17;18.17;;;;;;;;;;5027474;28;20253;-74
2023/05/22 11:59:32;;;;;;;18.67;16.97;;;;;;;;;;5029686;28;20595;-73
2023/05/22 12:01:58;;;;;;;17.40;15.60;;;;;;;;;;5027550;28;20584;-75
2023/05/22 12:04:25;;;;;;;18.20;16.40;;;;;;;;;;5029578;28;20199;-73
2023/05/22 12:06:51;;;;;;;17.90;16.10;;;;;;;;;;5025038;28;20213;-74
2023/05/22 12:09:17;;;;;;;20.40;18.50;;;;;;;;;;5014518;28;20643;-74
2023/05/22 12:11:47;;;;;;;18.67;16.87;;;;;;;;;;5032579;28;20229;-74
2023/05/22 12:14:13;;;;;;;17.93;16.13;;;;;;;;;;5031816;28;20198;-73
2023/05/22 12:16:40;;;;;;;17.33;15.13;;;;;;;;;;5026730;28;20608;-73
2023/05/22 12:19:10;;;;;;;17.67;15.87;;;;;;;;;;5027563;28;20267;-73
2023/05/22 12:21:40;;;;;;;17.93;16.23;;;;;;;;;;5024574;28;20216;-73
2023/05/22 12:24:07;;;;;;;16.67;15.07;;;;;;;;;;5030329;28;20754;-73
2023/05/22 12:26:33;;;;;;;14.93;13.37;;;;;;;;;;5041816;28;20201;-73
2023/05/22 12:28:59;;;;;;;16.87;14.80;;;;;;;;;;5029468;28;20205;-73
2023/05/22 12:31:26;;;;;;;19.03;14.53;;;;;;;;;;5027070;28;20226;-74
2023/05/22 12:33:55;;;;;;;15.47;14.17;;;;;;;;;;5033208;28;20217;-73
2023/05/22 12:36:31;;;;;;;13.83;12.53;;;;;;;;;;5030616;28;20172;-74
2023/05/22 12:38:57;;;;;;;15.43;12.47;;;;;;;;;;5031595;28;20211;-73
2023/05/22 12:41:23;;;;;;;13.53;12.20;;;;;;;;;;5039466;28;20211;-73
2023/05/22 12:43:49;;;;;;;12.03;11.03;;;;;;;;;;5042807;28;20202;-73
2023/05/22 12:46:15;;;;;;;12.60;11.33;;;;;;;;;;5031950;28;20185;-74
2023/05/22 12:48:41;;;;;;;12.50;11.10;;;;;;;;;;5050955;28;20213;-74
2023/05/22 12:51:11;;;;;;;14.80;13.23;;;;;;;;;;5051835;28;20675;-74
2023/05/22 12:53:37;;;;;;;12.77;11.63;;;;;;;;;;5045794;28;20198;-74
2023/05/22 12:56:04;;;;;;;13.43;12.07;;;;;;;;;;5028226;28;20277;-74
2023/05/22 12:58:30;;;;;;;13.63;12.27;;;;;;;;;;5040051;28;20213;-74
2023/05/22 13:00:57;;;;;;;11.87;10.87;;;;;;;;;;5031336;28;20215;-74
2023/05/22 13:03:23;;;;;;;11.23;10.33;;;;;;;;;;5030316;28;20193;-74
2023/05/22 13:05:49;;;;;;;10.70;9.60;;;;;;;;;;5030171;28;20594;-74
2023/05/22 13:08:15;;;;;;;11.97;10.97;;;;;;;;;;5024863;28;20224;-74
2023/05/22 13:10:41;;;;;;;13.27;11.23;;;;;;;;;;5028968;28;20191;-74
2023/05/22 13:13:07;;;;;;;11.30;10.30;;;;;;;;;;5038117;28;20547;-75
2023/05/22 13:15:34;;;;;;;11.93;10.93;;;;;;;;;;5039804;28;20263;-74
2023/05/22 13:18:01;;;;;;;12.10;11.10;;;;;;;;;;5010313;28;20201;-74
2023/05/22 13:20:27;;;;;;;12.20;11.10;;;;;;;;;;5020775;28;20240;-74
2023/05/22 13:22:53;;;;;;;12.13;11.13;;;;;;;;;;5042843;28;20188;-74
2023/05/22 13:25:20;;;;;;;11.73;10.73;;;;;;;;;;5036028;28;20185;-76
2023/05/22 13:27:49;;;;;;;11.17;10.20;;;;;;;;;;5021683;28;20203;-75
2023/05/22 13:30:15;;;;;;;12.40;11.10;;;;;;;;;;5029217;28;20224;-76
2023/05/22 13:32:41;;;;;;;11.18;10.25;;;;;;;;;;5030692;28;20186;-75
2023/05/22 13:35:08;;;;;;;10.97;9.97;;;;;;;;;;5033501;28;20188;-75
2023/05/22 13:37:34;;;;;;;10.65;9.65;;;;;;;;;;5029229;28;20207;-77
2023/05/22 13:40:00;;;;;;;10.77;9.68;;;;;;;;;;5035320;28;20185;-75
2023/05/22 13:42:27;;;;;;;10.30;9.50;;;;;;;;;;5032881;28;20682;-76
2023/05/22 13:44:53;;;;;;;10.20;9.15;;;;;;;;;;5031357;28;20195;-75
2023/05/22 13:47:21;;;;;;;10.13;9.18;;;;;;;;;;5037389;28;20199;-75
2023/05/22 13:49:48;;;;;;;10.55;9.43;;;;;;;;;;5024476;28;20581;-76
2023/05/22 13:52:15;;;;;;;10.90;9.57;;;;;;;;;;5047186;28;20185;-76
2023/05/22 13:54:41;;;;;;;9.73;8.75;;;;;;;;;;5026451;28;20193;-75
2023/05/22 13:57:07;;;;;;;10.15;9.10;;;;;;;;;;5019265;28;20266;-76
2023/05/22 13:59:33;;;;;;;9.50;8.65;;;;;;;;;;5031500;28;20235;-76
2023/05/22 14:01:59;;;;;;;9.77;8.98;;;;;;;;;;5026777;28;20214;-76
2023/05/22 14:04:26;;;;;;;9.77;8.80;;;;;;;;;;5029246;28;20313;-76
2023/05/22 14:06:52;;;;;;;10.70;9.60;;;;;;;;;;5030518;28;20191;-75
2023/05/22 14:09:18;;;;;;;10.93;9.13;;;;;;;;;;5030333;28;20192;-75
2023/05/22 14:11:45;;;;;;;11.23;10.30;;;;;;;;;;5031464;28;20587;-75
2023/05/22 14:14:11;;;;;;;10.63;9.60;;;;;;;;;;5041364;28;20197;-75
2023/05/22 14:16:37;;;;;;;10.67;9.63;;;;;;;;;;5035021;28;20616;-75
2023/05/22 14:19:04;;;;;;;9.23;8.43;;;;;;;;;;5034873;28;20193;-75
2023/05/22 14:21:30;;;;;;;10.13;8.83;;;;;;;;;;5023192;28;20205;-75
2023/05/22 14:23:56;;;;;;;9.10;8.40;;;;;;;;;;5021264;28;20185;-75